Terminal Aerodrome Forecast
Issued by NWS Green Bay, WI

Home | Current Version | Previous Version | Text Only | Print | Product List | Glossary On
Versions: 1 2 3 4 5 6 7 8 9 10 11 12 13 14 15 16 17 18 19 20 21 22 23 24 25 26 27 28 29 30 31 32 33 34 35 36 37 38 39 40 41 42 43 44
152
FTUS43 KGRB 302100 AAB
TAFGRB
TAF AMD
KGRB 302100Z 3021/0118 05018G25KT P6SM VCSH OVC019
     FM302300 04011KT P6SM VCSH OVC023
     FM010300 04010KT P6SM -SHRA OVC017
      TEMPO 0108/0112 3SM SHRA BR OVC008
     FM011200 04009KT P6SM -SHRA OVC010=

USA.gov is the U.S. government's official web portal to all federal, state and local government web resources and services.